Home > Products > Valid Products > TAF

000
FTUS43 KTOP 241100
TAFTOP
TAF
KTOP 241123Z 2412/2512 29010KT P6SM SKC
     FM241400 30014G22KT P6SM SCT040
     FM242300 30008KT P6SM SKC=



000
FTUS43 KTOP 240500
TAFTOP
TAF
KTOP 240524Z 2406/2506 30014G22KT P6SM FEW040 SCT150
     FM242300 30008KT P6SM SKC=



000
FTUS43 KTOP 240100 CCA
TAFTOP
TAF COR
KTOP 240135Z 2402/2424 33014G24KT 6SM -RA BR SCT025 OVC050
     FM240300 30014G22KT P6SM BKN035=



000
FTUS43 KTOP 240100 AAA
TAFTOP
TAF AMD
KTOP 240131Z 2402/2424 33014G24KT 6SM -RA BR BKN025 OVC035
     FM240300 30014G22KT P6SM BKN035=



000
FTUS43 KTOP 232300
TAFTOP
TAF
KTOP 232324Z 2400/2424 33014G24KT 6SM -RA BR SCT025 OVC035
     FM240400 30014G22KT P6SM BKN035=



000
FTUS43 KTOP 231900 AAA
TAFTOP
TAF AMD
KTOP 231910Z 2319/2418 28010KT 3SM -SHRA BR BKN007 OVC015
     FM232000 32019G27KT 3SM -RA BR OVC020
     FM240400 31016G23KT P6SM BKN035=



000
FTUS43 KTOP 231700
TAFTOP
TAF
KTOP 231720Z 2318/2418 19007KT 3SM -RA BR OVC015
     FM231900 28010KT 3SM -SHRA BR BKN007 OVC015
     FM232100 32019G27KT 3SM -RA BR OVC020
     FM240400 31016G23KT P6SM BKN035=



000
FTUS43 KTOP 231300 AAA
TAFTOP
TAF AMD
KTOP 231359Z 2314/2412 17007KT 5SM -DZ BR OVC012
     FM231700 28010KT 3SM -SHRA BR VCTS BKN007 OVC015CB
     FM232100 32019G27KT 5SM -RASN BR OVC020
     FM240600 31016G23KT P6SM BKN040=



000
FTUS43 KTOP 231100
TAFTOP
TAF
KTOP 231128Z 2312/2412 17007KT 5SM -DZ BR OVC009
      TEMPO 2312/2314 3SM BR OVC004
     FM231700 28010KT 3SM -SHRA BR VCTS BKN007 OVC015CB
     FM232100 32019G27KT 5SM -RASN BR OVC020
     FM240600 31016G23KT P6SM BKN040=



000
FTUS43 KTOP 230500 CCA
TAFTOP
TAF COR
KTOP 230533Z 2306/2406 18011KT P6SM OVC013
     FM230900 17007KT 5SM -DZ BR OVC007
     FM231700 28010KT 3SM -SHRA BR VCTS BKN007 OVC015CB
     FM232100 32019G27KT 5SM -RASN BR OVC020=



000
FTUS43 KTOP 230500
TAFTOP
TAF
KTOP 230522Z 2306/2406 18011KT P6SM OVC013
     FM230900 17007KT 5SM -DZ BR OVC007
     FM231700 28010KT 3SM -DZ BR VCTS BKN007 OVC015CB
     FM232100 32019G27KT 5SM -RASN BR OVC020=



000
FTUS43 KTOP 230200 AAB
TAFTOP
TAF AMD
KTOP 230229Z 2302/2324 18013G20KT 6SM BR OVC015
     FM230700 18010KT 3SM -DZ BR OVC004
     FM231500 18007KT 3SM -DZ BR VCTS BKN006 OVC020CB
     FM232000 32016G26KT 5SM -RA BR BKN020=



000
FTUS43 KTOP 230000 AAA
TAFTOP
TAF AMD
KTOP 230057Z 2301/2324 18010KT 6SM BR OVC020
     FM230700 18010KT 3SM -DZ BR OVC004
     FM231500 18007KT 3SM -DZ BR VCTS BKN006 OVC020CB
     FM232000 32016G26KT 5SM -RA BR BKN020=



000
FTUS43 KTOP 222300
TAFTOP
TAF
KTOP 222334Z 2300/2324 18010KT 6SM BR SCT015 BKN045
     FM230700 18010KT 3SM -DZ BR OVC004
     FM231500 18007KT 3SM -DZ BR VCTS BKN006 OVC020CB
     FM232000 32016G26KT 5SM -RA BR BKN020=



000
FTUS43 KTOP 222000 AAA
TAFTOP
TAF AMD
KTOP 222038Z 2221/2318 19012KT 4SM BR BKN010
     FM230700 18010KT 2SM -DZ BR OVC004
     FM231000 18007KT 1SM -DZ BR VCTS BKN004 OVC020CB=



000
FTUS43 KTOP 221700
TAFTOP
TAF
KTOP 221735Z 2218/2318 19012KT 4SM BR BKN005 OVC025
     FM230700 18010KT 2SM -DZ BR OVC004
     FM231000 18007KT 1SM -DZ BR VCTS BKN004 OVC020CB=



000
FTUS43 KTOP 221500 AAB
TAFTOP
TAF AMD
KTOP 221540Z 2216/2312 17004KT 1SM -DZ BR VV003
      TEMPO 2216/2217 1SM BR OVC005
     FM221800 19011KT 5SM BR BKN015 OVC025
     FM230700 18010KT 2SM BR OVC009=



000
FTUS43 KTOP 221500 AAB
TAFTOP
TAF AMD
KTOP 221540Z 2216/2312 17004KT 1SM -DZ BR VV003
      TEMPO 2216/2217 1SM BR OVC005
     FM221800 19011KT 5SM BR BKN015 OVC025
     FM230700 18010KT 2SM BR OVC009=



000
FTUS43 KTOP 221300 AAA
TAFTOP
TAF AMD
KTOP 221352Z 2214/2312 14004KT 1/4SM -DZ FG VV003
      TEMPO 2214/2217 1SM BR OVC005
     FM221800 19011KT 5SM BR BKN015 OVC025
     FM230700 18010KT 2SM BR OVC009=



000
FTUS43 KTOP 221100
TAFTOP
TAF
KTOP 221123Z 2212/2312 19004KT 1SM -DZ BR OVC005
      TEMPO 2212/2215 3/4SM BR OVC004
     FM221700 19011KT 5SM BR BKN015 OVC025
     FM230700 18010KT 2SM BR OVC009=



000
FTUS43 KTOP 220500
TAFTOP
TAF
KTOP 220531Z 2206/2306 14002KT 5SM -DZ BR OVC009
     FM220800 19004KT 2SM -DZ BR OVC007
      TEMPO 2210/2214 1SM -DZ BR OVC003
     FM221700 19010KT 5SM BR BKN015 OVC025=



000
FTUS43 KTOP 220300 AAA
TAFTOP
TAF AMD
KTOP 220302Z 2203/2224 12003KT 3SM -DZ BR OVC010
     FM220700 18004KT 1SM -DZ BR OVC009
      TEMPO 2207/2211 1/2SM -DZ FG OVC003
     FM221600 19008KT 5SM BR SCT015 BKN025=



000
FTUS43 KTOP 212300 AAA
TAFTOP
TAF AMD
KTOP 212359Z 2200/2224 12004KT 3SM -DZ BR OVC010
      TEMPO 2203/2207 1/2SM -DZ FG OVC003
     FM220800 18005KT 1SM -DZ BR OVC009
     FM221600 19008KT 5SM BR SCT015 BKN025=



000
FTUS43 KTOP 212300
TAFTOP
TAF
KTOP 212323Z 2200/2224 12004KT 3SM -DZ BR OVC009
      TEMPO 2203/2207 1/2SM -DZ FG OVC003
     FM220800 18005KT 1SM -DZ BR OVC009
     FM221600 19008KT 5SM BR SCT015 BKN025=



000
FTUS43 KTOP 212200 AAA
TAFTOP
TAF AMD
KTOP 212226Z 2122/2218 09004KT 3SM -DZ BR OVC012
     FM220000 20006KT 1SM -DZ BR OVC003
      TEMPO 2200/2204 1/2SM -DZ FG OVC003
     FM221600 21007KT 3SM BR BKN030=



000
FTUS43 KTOP 211700
TAFTOP
TAF
KTOP 211734Z 2118/2218 11006KT 4SM -DZ BR OVC012
     FM212000 12004KT 3SM -DZ BR OVC007
     FM220000 20006KT 1SM -DZ BR OVC005
     FM221600 21007KT 3SM BR BKN030=



000
FTUS43 KTOP 211500 AAA
TAFTOP
TAF AMD
KTOP 211535Z 2116/2212 08005KT P6SM FEW200
     FM211600 10007KT P6SM BKN012
     FM211700 11006KT 6SM -SHRA BR OVC015
     FM220100 12004KT 5SM -DZ BR OVC007
     FM220700 20006KT 4SM BR OVC022=



    US Dept of Commerce
    National Oceanic and Atmospheric Administration
    National Weather Service
    1325 East West Highway
    Silver Spring, MD 20910
    Page Author: NWS Internet Services Team
Disclaimer
Information Quality
Credits
Glossary
Privacy Policy
Freedom of Information Act (FOIA)
About Us
Career Opportunities